createdAt,value
2022-09-11T00:03:47.381Z,16.19
2022-09-11T00:07:16.289Z,16.17
2022-09-11T00:10:44.461Z,16.16
2022-09-11T00:14:14.343Z,16.14
2022-09-11T00:17:42.200Z,16.11
2022-09-11T00:21:10.382Z,16.06
2022-09-11T00:24:36.980Z,16.02
2022-09-11T00:28:04.353Z,15.99
2022-09-11T00:31:32.725Z,15.98
2022-09-11T00:35:00.609Z,15.98
2022-09-11T00:38:28.572Z,16.00
2022-09-11T00:41:55.504Z,16.03
2022-09-11T00:45:26.419Z,16.07
2022-09-11T00:48:54.904Z,16.10
2022-09-11T00:52:27.406Z,16.09
2022-09-11T00:55:56.830Z,16.14
2022-09-11T00:59:27.272Z,16.15
2022-09-11T01:02:56.548Z,16.19
2022-09-11T01:06:24.450Z,16.23
2022-09-11T01:09:51.915Z,16.27
2022-09-11T01:13:34.666Z,16.31
2022-09-11T01:17:12.934Z,16.32
2022-09-11T01:20:59.636Z,16.31
2022-09-11T01:24:45.671Z,16.30
2022-09-11T01:28:17.071Z,16.29
2022-09-11T01:31:52.704Z,16.28
2022-09-11T01:35:27.510Z,16.24
2022-09-11T01:38:58.721Z,16.19
2022-09-11T01:42:33.918Z,16.14
2022-09-11T01:46:04.790Z,16.08
2022-09-11T01:49:40.822Z,16.06
2022-09-11T01:53:14.362Z,16.05
2022-09-11T01:56:49.582Z,16.06
2022-09-11T02:00:18.987Z,16.08
2022-09-11T02:03:57.016Z,16.11
2022-09-11T02:07:26.939Z,16.14
2022-09-11T02:11:04.209Z,16.17
2022-09-11T02:14:39.068Z,16.21
2022-09-11T02:18:14.727Z,16.23
2022-09-11T02:21:42.020Z,16.25
2022-09-11T02:25:10.303Z,16.27
2022-09-11T02:28:39.199Z,16.30
2022-09-11T02:32:07.328Z,16.31
2022-09-11T02:35:43.800Z,16.33
2022-09-11T02:39:27.701Z,16.36
2022-09-11T02:43:17.125Z,16.35
2022-09-11T02:47:07.643Z,16.35
2022-09-11T02:50:42.581Z,16.31
2022-09-11T02:54:26.076Z,16.26
2022-09-11T02:58:01.477Z,16.22
2022-09-11T03:01:32.115Z,16.18
2022-09-11T03:05:00.406Z,16.17
2022-09-11T03:08:27.294Z,16.17
2022-09-11T03:11:55.531Z,16.19
2022-09-11T03:15:24.030Z,16.20
2022-09-11T03:18:52.084Z,16.21
2022-09-11T03:22:19.093Z,16.23
2022-09-11T03:25:47.378Z,16.25
2022-09-11T03:29:14.681Z,16.27
2022-09-11T03:32:43.594Z,16.31
2022-09-11T03:36:13.197Z,16.32
2022-09-11T03:39:40.178Z,16.31
2022-09-11T03:43:07.156Z,16.32
2022-09-11T03:46:35.359Z,16.29
2022-09-11T03:50:02.901Z,16.28
2022-09-11T03:53:30.348Z,16.27
2022-09-11T03:56:59.282Z,16.22
2022-09-11T04:00:27.720Z,16.15
2022-09-11T04:03:55.132Z,16.06
2022-09-11T04:07:27.508Z,15.96
2022-09-11T04:11:00.098Z,15.88
2022-09-11T04:14:28.330Z,15.82
2022-09-11T04:17:56.970Z,15.75
2022-09-11T04:21:23.814Z,15.72
2022-09-11T04:24:52.200Z,15.72
2022-09-11T04:28:20.012Z,15.70
2022-09-11T04:31:46.914Z,15.66
2022-09-11T04:35:15.074Z,15.64
2022-09-11T04:38:51.168Z,15.60
2022-09-11T04:42:19.096Z,15.57
2022-09-11T04:45:45.921Z,15.61
2022-09-11T04:49:14.989Z,15.61
2022-09-11T04:52:42.564Z,15.62
2022-09-11T04:56:13.941Z,15.63
2022-09-11T04:59:45.221Z,15.61
2022-09-11T05:03:14.010Z,15.55
2022-09-11T05:06:41.182Z,15.52
2022-09-11T05:10:11.555Z,15.55
2022-09-11T05:13:38.759Z,15.57
2022-09-11T05:17:06.689Z,15.56
2022-09-11T05:20:36.333Z,15.57
2022-09-11T05:24:04.691Z,15.54
2022-09-11T05:27:33.453Z,15.52
2022-09-11T05:31:02.739Z,15.52
2022-09-11T05:34:30.250Z,15.52
2022-09-11T05:37:57.817Z,15.54
2022-09-11T05:41:25.320Z,15.54
2022-09-11T05:44:53.315Z,15.58
2022-09-11T05:48:20.116Z,15.57
2022-09-11T05:51:48.446Z,15.55
2022-09-11T05:55:16.833Z,15.50
2022-09-11T05:58:43.824Z,15.47
2022-09-11T06:02:13.426Z,15.41
2022-09-11T06:05:44.393Z,15.37
2022-09-11T06:09:12.154Z,15.35
2022-09-11T06:12:40.419Z,15.34
2022-09-11T06:16:09.287Z,15.35
2022-09-11T06:19:36.080Z,15.34
2022-09-11T06:23:09.021Z,15.35
2022-09-11T06:26:37.840Z,15.33
2022-09-11T06:30:04.879Z,15.34
2022-09-11T06:33:36.977Z,15.39
2022-09-11T06:37:03.827Z,15.43
2022-09-11T06:40:31.735Z,15.47
2022-09-11T06:43:59.653Z,15.53
2022-09-11T06:47:27.994Z,15.55
2022-09-11T06:50:55.648Z,15.59
2022-09-11T06:54:22.610Z,15.60
2022-09-11T06:57:49.919Z,15.62
2022-09-11T07:01:22.827Z,15.58
2022-09-11T07:04:54.929Z,15.53
2022-09-11T07:08:24.966Z,15.49
2022-09-11T07:11:54.357Z,15.42
2022-09-11T07:15:22.395Z,15.37
2022-09-11T07:18:50.606Z,15.34
2022-09-11T07:22:20.119Z,15.27
2022-09-11T07:25:51.167Z,15.24
2022-09-11T07:29:18.809Z,15.23
2022-09-11T07:32:47.445Z,15.21
2022-09-11T07:36:17.012Z,15.19
2022-09-11T07:39:44.266Z,15.14
2022-09-11T07:43:20.062Z,15.07
2022-09-11T07:46:46.454Z,15.02
2022-09-11T07:50:14.684Z,14.98
2022-09-11T07:53:44.925Z,15.00
2022-09-11T07:57:12.339Z,14.98
2022-09-11T08:00:39.548Z,14.95
2022-09-11T08:04:16.028Z,14.96
2022-09-11T08:07:43.397Z,15.01
2022-09-11T08:11:13.956Z,15.03
2022-09-11T08:14:42.690Z,15.06
2022-09-11T08:18:20.687Z,15.07
2022-09-11T08:21:48.102Z,15.11
2022-09-11T08:25:15.453Z,15.15
2022-09-11T08:28:45.161Z,15.20
2022-09-11T08:32:13.778Z,15.24
2022-09-11T08:35:41.398Z,15.30
2022-09-11T08:39:10.032Z,15.30
2022-09-11T08:42:47.795Z,15.29
2022-09-11T08:46:18.422Z,15.27
2022-09-11T08:49:50.661Z,15.28
2022-09-11T08:53:22.272Z,15.33
2022-09-11T08:56:51.479Z,15.42
2022-09-11T09:00:23.367Z,15.50
2022-09-11T09:04:20.168Z,15.58
2022-09-11T09:08:01.641Z,15.71
2022-09-11T09:11:38.688Z,15.82
2022-09-11T09:15:29.565Z,15.98
2022-09-11T09:19:03.608Z,16.06
2022-09-11T09:22:47.381Z,16.15
2022-09-11T09:26:19.064Z,16.25
2022-09-11T09:29:52.277Z,16.38
2022-09-11T09:33:31.011Z,16.49
2022-09-11T09:37:15.523Z,16.72
2022-09-11T09:40:50.136Z,16.87
2022-09-11T09:44:26.471Z,17.03
2022-09-11T09:47:54.086Z,17.18
2022-09-11T09:51:21.448Z,17.30
2022-09-11T09:54:57.262Z,17.46
2022-09-11T09:58:28.154Z,17.62
2022-09-11T10:01:55.710Z,17.55
2022-09-11T10:05:30.060Z,17.51
2022-09-11T10:09:03.264Z,17.59
2022-09-11T10:12:31.781Z,17.64
2022-09-11T10:16:01.707Z,17.87
2022-09-11T10:19:42.444Z,18.14
2022-09-11T10:26:51.123Z,18.34
2022-09-11T10:30:36.342Z,18.43
2022-09-11T10:34:06.264Z,18.39
2022-09-11T10:37:35.023Z,18.46
2022-09-11T10:41:09.922Z,18.47
2022-09-11T10:44:37.290Z,18.56
2022-09-11T10:48:20.018Z,18.64
2022-09-11T10:52:02.605Z,18.70
2022-09-11T10:55:36.156Z,18.74
2022-09-11T10:59:11.784Z,18.81
2022-09-11T11:02:41.995Z,19.00
2022-09-11T11:06:21.286Z,19.04
2022-09-11T11:10:02.483Z,18.91
2022-09-11T11:13:45.611Z,18.82
2022-09-11T11:17:23.040Z,18.78
2022-09-11T11:21:00.631Z,18.65
2022-09-11T11:24:51.404Z,18.51
2022-09-11T11:28:37.421Z,18.44
2022-09-11T11:32:37.091Z,18.40
2022-09-11T11:36:10.152Z,18.46
2022-09-11T11:39:49.216Z,18.75
2022-09-11T11:43:20.203Z,18.92
2022-09-11T11:46:52.406Z,19.02
2022-09-11T11:50:29.854Z,19.28
2022-09-11T11:54:05.929Z,19.52
2022-09-11T11:57:41.893Z,19.55
2022-09-11T12:01:18.666Z,19.86
2022-09-11T12:04:52.537Z,20.12
2022-09-11T12:08:20.374Z,20.34
2022-09-11T12:11:52.536Z,20.40
2022-09-11T12:15:24.266Z,20.39
2022-09-11T12:19:20.044Z,20.59
2022-09-11T12:22:50.604Z,20.69
2022-09-11T12:26:25.002Z,20.92
2022-09-11T12:30:08.846Z,21.18
2022-09-11T12:33:59.449Z,21.37
2022-09-11T12:37:33.227Z,21.49
2022-09-11T12:41:07.507Z,21.34
2022-09-11T12:44:55.884Z,21.33
2022-09-11T12:48:26.964Z,21.15
2022-09-11T12:51:59.753Z,20.93
2022-09-11T12:55:33.911Z,20.85
2022-09-11T12:59:08.177Z,20.85
2022-09-11T13:02:39.822Z,21.11
2022-09-11T13:06:10.513Z,21.25
2022-09-11T13:09:43.486Z,21.28
2022-09-11T13:13:45.143Z,21.40
2022-09-11T13:17:22.660Z,21.75
2022-09-11T13:21:00.956Z,22.03
2022-09-11T13:24:30.507Z,22.13
2022-09-11T13:28:01.605Z,22.39
2022-09-11T13:31:35.862Z,22.56
2022-09-11T13:35:08.217Z,22.64
2022-09-11T13:38:38.810Z,22.62
2022-09-11T13:42:07.731Z,22.62
2022-09-11T13:45:34.982Z,22.64
2022-09-11T13:49:27.315Z,22.34
2022-09-11T13:52:56.313Z,21.99
2022-09-11T13:56:45.894Z,21.78
2022-09-11T14:00:43.052Z,21.78
2022-09-11T14:04:13.118Z,21.53
2022-09-11T14:07:47.962Z,21.37
2022-09-11T14:11:27.869Z,21.09
2022-09-11T14:15:02.025Z,20.75
2022-09-11T14:18:35.034Z,20.53
2022-09-11T14:22:15.554Z,20.34
2022-09-11T14:26:02.984Z,20.17
2022-09-11T14:29:31.888Z,19.98
2022-09-11T14:33:24.868Z,19.87
2022-09-11T14:37:00.355Z,19.78
2022-09-11T14:40:27.365Z,19.80
2022-09-11T14:43:56.889Z,19.78
2022-09-11T14:47:31.789Z,19.77
2022-09-11T14:51:02.417Z,19.78
2022-09-11T14:54:33.408Z,19.78
2022-09-11T14:58:22.297Z,19.77
2022-09-11T15:01:52.600Z,19.68
2022-09-11T15:05:23.263Z,19.61
2022-09-11T15:08:50.303Z,19.50
2022-09-11T15:12:17.917Z,19.39
2022-09-11T15:15:45.573Z,19.28
2022-09-11T15:19:13.071Z,19.20
2022-09-11T15:22:42.035Z,19.18
2022-09-11T15:26:13.257Z,19.15
2022-09-11T15:29:42.928Z,19.11
2022-09-11T15:33:13.681Z,19.03
2022-09-11T15:36:45.812Z,19.05
2022-09-11T15:40:16.377Z,19.03
2022-09-11T15:43:50.850Z,18.97
2022-09-11T15:47:17.674Z,18.86
2022-09-11T15:50:45.163Z,18.74
2022-09-11T15:54:16.204Z,18.64
2022-09-11T16:01:32.508Z,18.51
2022-09-11T16:05:02.740Z,18.47
2022-09-11T16:08:30.543Z,18.42
2022-09-11T16:12:00.461Z,18.37
2022-09-11T16:15:27.899Z,18.31
2022-09-11T16:18:55.708Z,18.26
2022-09-11T16:22:26.125Z,18.19
2022-09-11T16:25:56.056Z,18.10
2022-09-11T16:29:37.809Z,18.01
2022-09-11T16:33:15.240Z,17.95
2022-09-11T16:36:45.072Z,17.85
2022-09-11T16:40:13.675Z,17.80
2022-09-11T16:43:46.236Z,17.74
2022-09-11T16:47:13.709Z,17.65
2022-09-11T16:50:42.204Z,17.53
2022-09-11T16:54:14.346Z,17.45
2022-09-11T16:57:44.751Z,17.37
2022-09-11T17:01:16.272Z,17.28
2022-09-11T17:04:52.065Z,17.17
2022-09-11T17:08:23.968Z,17.09
2022-09-11T17:11:51.991Z,16.99
2022-09-11T17:15:25.185Z,16.91
2022-09-11T17:18:57.147Z,16.82
2022-09-11T17:22:24.332Z,16.73
2022-09-11T17:25:52.402Z,16.63
2022-09-11T17:29:20.251Z,16.55
2022-09-11T17:32:48.229Z,16.46
2022-09-11T17:36:18.094Z,16.38
2022-09-11T17:39:51.320Z,16.28
2022-09-11T17:43:21.482Z,16.19
2022-09-11T17:46:48.267Z,16.13
2022-09-11T17:50:16.506Z,16.05
2022-09-11T17:53:46.670Z,15.98
2022-09-11T17:57:16.354Z,15.90
2022-09-11T18:00:46.073Z,15.78
2022-09-11T18:04:14.968Z,15.64
2022-09-11T18:07:42.079Z,15.54
2022-09-11T18:11:09.918Z,15.44
2022-09-11T18:14:40.329Z,15.35
2022-09-11T18:18:10.347Z,15.30
2022-09-11T18:21:38.485Z,15.25
2022-09-11T18:25:09.744Z,15.18
2022-09-11T18:28:40.936Z,15.11
2022-09-11T18:32:10.135Z,15.02
2022-09-11T18:35:38.685Z,14.94
2022-09-11T18:39:07.201Z,14.89
2022-09-11T18:42:34.460Z,14.83
2022-09-11T18:46:04.901Z,14.83
2022-09-11T18:49:33.919Z,14.81
2022-09-11T18:53:01.058Z,14.76
2022-09-11T18:56:31.529Z,14.75
2022-09-11T19:00:00.173Z,14.66
2022-09-11T19:03:29.027Z,14.60
2022-09-11T19:06:56.712Z,14.56
2022-09-11T19:10:24.075Z,14.52
2022-09-11T19:13:53.423Z,14.47
2022-09-11T19:17:21.739Z,14.40
2022-09-11T19:21:00.434Z,14.31
2022-09-11T19:24:30.523Z,14.24
2022-09-11T19:28:00.179Z,14.18
2022-09-11T19:31:33.000Z,14.09
2022-09-11T19:35:00.677Z,14.03
2022-09-11T19:38:28.736Z,13.95
2022-09-11T19:41:56.236Z,13.88
2022-09-11T19:45:24.319Z,13.82
2022-09-11T19:48:54.469Z,13.76
2022-09-11T19:52:24.511Z,13.69
2022-09-11T19:55:56.647Z,13.64
2022-09-11T19:59:23.994Z,13.61
2022-09-11T20:02:55.019Z,13.61
2022-09-11T20:06:32.498Z,13.59
2022-09-11T20:10:00.459Z,13.57
2022-09-11T20:13:28.243Z,13.53
2022-09-11T20:16:55.417Z,13.50
2022-09-11T20:20:23.275Z,13.45
2022-09-11T20:23:55.708Z,13.36
2022-09-11T20:27:22.812Z,13.29
2022-09-11T20:30:51.630Z,13.22
2022-09-11T20:34:19.849Z,13.14
2022-09-11T20:37:47.827Z,13.05
2022-09-11T20:41:17.604Z,12.99
2022-09-11T20:44:45.625Z,12.97
2022-09-11T20:48:12.314Z,12.93
2022-09-11T20:51:44.662Z,12.90
2022-09-11T20:55:12.823Z,12.88
2022-09-11T20:58:44.443Z,12.88
2022-09-11T21:02:15.041Z,12.89
2022-09-11T21:05:42.738Z,12.91
2022-09-11T21:09:11.434Z,12.91
2022-09-11T21:12:38.341Z,12.91
2022-09-11T21:16:09.167Z,12.91
2022-09-11T21:19:36.684Z,12.85
2022-09-11T21:23:04.722Z,12.88
2022-09-11T21:26:33.406Z,12.80
2022-09-11T21:30:00.459Z,12.79
2022-09-11T21:33:27.708Z,12.68
2022-09-11T21:36:55.580Z,12.64
2022-09-11T21:40:24.096Z,12.58
2022-09-11T21:44:04.133Z,12.53
2022-09-11T21:47:31.822Z,12.48
2022-09-11T21:51:06.585Z,12.44
2022-09-11T21:54:34.959Z,12.41
2022-09-11T21:58:02.604Z,12.41
2022-09-11T22:01:37.164Z,12.41
2022-09-11T22:05:07.966Z,12.42
2022-09-11T22:08:38.910Z,12.44
2022-09-11T22:12:07.214Z,12.43
2022-09-11T22:15:42.197Z,12.42
2022-09-11T22:19:09.801Z,12.41
2022-09-11T22:22:40.363Z,12.39
2022-09-11T22:26:18.112Z,12.35
2022-09-11T22:29:47.118Z,12.29
2022-09-11T22:33:15.016Z,12.24
2022-09-11T22:36:42.694Z,12.17
2022-09-11T22:40:12.260Z,12.09
2022-09-11T22:43:39.729Z,12.01
2022-09-11T22:47:09.813Z,11.94
2022-09-11T22:50:41.148Z,11.88
2022-09-11T22:54:14.248Z,11.82
2022-09-11T22:57:44.291Z,11.78
2022-09-11T23:01:15.494Z,11.76
2022-09-11T23:05:04.758Z,11.75
2022-09-11T23:08:38.410Z,11.77
2022-09-11T23:12:06.864Z,11.78
2022-09-11T23:15:34.596Z,11.79
2022-09-11T23:19:05.424Z,11.81
2022-09-11T23:22:40.077Z,11.81
2022-09-11T23:26:12.359Z,11.77
2022-09-11T23:29:39.204Z,11.72
2022-09-11T23:33:06.435Z,11.67
2022-09-11T23:36:34.618Z,11.62
2022-09-11T23:40:01.979Z,11.56
2022-09-11T23:43:29.373Z,11.50
2022-09-11T23:46:56.392Z,11.44
2022-09-11T23:50:26.296Z,11.36
2022-09-11T23:53:53.596Z,11.32
2022-09-11T23:57:20.342Z,11.30
